createdAt,value
2022-08-17T00:00:49.345Z,1011.77
2022-08-17T00:10:49.505Z,1011.75
2022-08-17T00:20:56.609Z,1011.73
2022-08-17T00:31:03.445Z,1011.86
2022-08-17T00:41:10.399Z,1011.92
2022-08-17T00:51:17.241Z,1011.84
2022-08-17T01:01:24.135Z,1011.78
2022-08-17T01:11:31.099Z,1011.87
2022-08-17T01:21:38.209Z,1011.93
2022-08-17T01:31:45.021Z,1011.95
2022-08-17T01:41:51.333Z,1012.00
2022-08-17T01:51:57.896Z,1012.14
2022-08-17T02:02:06.599Z,1012.12
2022-08-17T02:12:39.535Z,1012.08
2022-08-17T02:22:24.564Z,1012.07
2022-08-17T02:32:31.302Z,1012.04
2022-08-17T02:42:38.291Z,1012.01
2022-08-17T02:52:44.284Z,1011.95
2022-08-17T03:02:54.095Z,1012.02
2022-08-17T03:13:00.306Z,1011.96
2022-08-17T03:23:06.838Z,1011.98
2022-08-17T03:33:16.676Z,1011.91
2022-08-17T03:43:22.794Z,1011.93
2022-08-17T03:53:28.988Z,1011.88
2022-08-17T04:03:34.986Z,1011.95
2022-08-17T04:13:41.455Z,1012.01
2022-08-17T04:23:47.891Z,1012.11
2022-08-17T04:33:54.541Z,1012.07
2022-08-17T04:44:00.843Z,1012.22
2022-08-17T04:54:07.496Z,1012.23
2022-08-17T05:04:33.137Z,1012.22
2022-08-17T05:14:33.103Z,1012.28
2022-08-17T05:24:40.807Z,1012.37
2022-08-17T05:34:47.456Z,1012.46
2022-08-17T05:44:53.558Z,1012.57
2022-08-17T05:54:59.629Z,1012.65
2022-08-17T06:05:05.643Z,1012.69
2022-08-17T06:15:11.992Z,1012.67
2022-08-17T06:25:18.710Z,1012.67
2022-08-17T06:35:30.035Z,1012.67
2022-08-17T06:45:37.634Z,1012.73
2022-08-17T06:55:44.712Z,1012.78
2022-08-17T07:05:51.437Z,1012.79
2022-08-17T07:15:57.899Z,1012.83
2022-08-17T07:26:04.478Z,1012.75
2022-08-17T07:36:11.607Z,1012.83
2022-08-17T07:46:18.573Z,1012.89
2022-08-17T07:56:25.385Z,1012.91
2022-08-17T08:06:37.270Z,1012.88
2022-08-17T08:16:43.894Z,1012.89
2022-08-17T08:26:50.908Z,1012.91
2022-08-17T08:37:17.583Z,1012.95
2022-08-17T08:47:08.791Z,1012.82
2022-08-17T08:57:29.063Z,1012.84
2022-08-17T09:07:27.473Z,1012.79
2022-08-17T09:17:34.556Z,1012.85
2022-08-17T09:27:41.266Z,1012.80
2022-08-17T09:37:47.433Z,1012.73
2022-08-17T09:47:53.785Z,1012.74
2022-08-17T09:58:00.693Z,1012.76
2022-08-17T10:08:08.205Z,1012.69
2022-08-17T10:18:14.942Z,1012.59
2022-08-17T10:28:25.833Z,1012.61
2022-08-17T10:38:34.293Z,1012.61
2022-08-17T10:48:41.580Z,1012.62
2022-08-17T10:58:48.678Z,1012.60
2022-08-17T11:08:55.995Z,1012.61
2022-08-17T11:19:02.473Z,1012.43
2022-08-17T11:29:09.270Z,1012.40
2022-08-17T11:39:16.258Z,1012.31
2022-08-17T11:49:23.274Z,1012.31
2022-08-17T11:59:30.050Z,1012.21
2022-08-17T12:09:37.385Z,1012.18
2022-08-17T12:19:44.302Z,1012.18
2022-08-17T12:29:51.130Z,1012.22
2022-08-17T12:39:58.654Z,1012.22
2022-08-17T12:50:05.962Z,1012.17
2022-08-17T13:00:12.735Z,1012.07
2022-08-17T13:10:19.879Z,1011.88
2022-08-17T13:20:26.535Z,1011.86
2022-08-17T13:30:33.488Z,1011.89
2022-08-17T13:40:40.266Z,1011.90
2022-08-17T13:50:47.129Z,1011.86
2022-08-17T14:00:53.624Z,1011.84
2022-08-17T14:11:00.152Z,1011.84
2022-08-17T14:21:07.158Z,1011.72
2022-08-17T14:31:13.401Z,1011.73
2022-08-17T14:41:22.281Z,1011.71
2022-08-17T14:51:28.898Z,1011.66
2022-08-17T15:01:35.234Z,1011.71
2022-08-17T15:11:42.554Z,1011.58
2022-08-17T15:21:48.920Z,1011.62
2022-08-17T15:32:00.471Z,1011.61
2022-08-17T15:42:07.843Z,1011.59
2022-08-17T15:52:14.744Z,1011.47
2022-08-17T16:03:15.877Z,1011.38
2022-08-17T16:12:33.286Z,1011.39
2022-08-17T16:22:39.820Z,1011.43
2022-08-17T16:32:46.978Z,1011.48
2022-08-17T16:42:53.484Z,1011.29
2022-08-17T16:53:00.356Z,1011.36
2022-08-17T17:03:06.954Z,1011.37
2022-08-17T17:13:17.563Z,1011.31
2022-08-17T17:23:23.649Z,1011.36
2022-08-17T17:33:29.784Z,1011.35
2022-08-17T17:43:44.361Z,1011.34
2022-08-17T17:53:52.562Z,1011.30
2022-08-17T18:03:59.291Z,1011.34
2022-08-17T18:14:05.036Z,1011.46
2022-08-17T18:24:11.176Z,1011.40
2022-08-17T18:34:36.090Z,1011.41
2022-08-17T18:44:29.311Z,1011.62
2022-08-17T18:54:36.537Z,1011.56
2022-08-17T19:04:44.886Z,1011.64
2022-08-17T19:14:51.296Z,1011.63
2022-08-17T19:26:54.671Z,1011.54
2022-08-17T19:36:29.135Z,1011.58
2022-08-17T19:46:36.086Z,1011.54
2022-08-17T19:56:46.444Z,1011.52
2022-08-17T20:06:53.730Z,1011.50
2022-08-17T20:17:02.766Z,1011.46
2022-08-17T20:27:10.004Z,1011.50
2022-08-17T20:37:16.740Z,1011.44
2022-08-17T20:47:27.186Z,1011.41
2022-08-17T20:57:34.575Z,1011.47
2022-08-17T21:07:53.468Z,1011.46
2022-08-17T21:17:53.390Z,1011.54
2022-08-17T21:28:00.400Z,1011.55
2022-08-17T21:38:07.508Z,1011.61
2022-08-17T21:48:14.067Z,1011.68
2022-08-17T21:58:21.075Z,1011.64
2022-08-17T22:08:27.862Z,1011.72
2022-08-17T22:18:34.572Z,1011.74
2022-08-17T22:28:41.553Z,1011.78
2022-08-17T22:38:48.257Z,1011.78
2022-08-17T22:48:55.046Z,1011.77
2022-08-17T22:59:01.808Z,1011.83
2022-08-17T23:09:08.714Z,1011.77
2022-08-17T23:19:15.902Z,1011.80
2022-08-17T23:29:22.469Z,1011.78
2022-08-17T23:39:28.509Z,1011.69
2022-08-17T23:49:34.989Z,1011.70
2022-08-17T23:59:42.226Z,1011.58
